Coe, Illinois
Current Conditions -  °F | °C
As of 12:52 AM on Monday 24 Nov 2014 (Local Time) from KDVN Reporting Station
Haze Haze  
Wind Chill: 32°   Ceiling: 500
Heat Index: 41°   Visibility: 5mi
Dew Point: 39°   Wind: 18mph
Humidity: 93%   Direction: 310°NW
Pressure: 29.15"   Gusts: 32mph
Location:  41.595°N, 90.2974°W
Report Text: KDVN 240652Z AUTO 31016G28KT 5SM BR OVC005 05/04 A2915 RMK AO2 PK WND 32028/0650 RAB02E20 SLP874 P0000 T00500039
Loading
Personal Weather Stations






























Interactive Weather Map New forecast layout! Learn more

10-Day Weather Forecast

Advertisements
Track Severe Weather on mobile